Time;durP1;ratioP1;P1;durP2;ratioP2;P2;SDS_P1;SDS_P2;PMS_P1;PMS_P2;Temp;Humidity;BMP_temperature;BMP_pressure;BME280_temperature;BME280_humidity;BME280_pressure;Samples;Min_cycle;Max_cycle;Signal;HPM_P1;HPM_P2
2023/11/30 00:01:18;;;;;;;;;;;;;;;;;;5032516;28;20235;-82
2023/11/30 00:03:44;;;;;;;;;;;;;;;;;;5031402;28;19924;-84
2023/11/30 00:06:10;;;;;;;;;;;;;;;;;;5031237;28;20011;-84
2023/11/30 00:08:36;;;;;;;;;;;;;;;;;;5031495;28;19930;-83
2023/11/30 00:11:02;;;;;;;;;;;;;;;;;;5029549;28;19960;-82
2023/11/30 00:13:28;;;;;;;;;;;;;;;;;;5030598;28;19920;-82
2023/11/30 00:15:54;;;;;;;;;;;;;;;;;;5021653;28;19924;-83
2023/11/30 00:18:20;;;;;;;;;;;;;;;;;;5000070;28;19943;-82
2023/11/30 00:20:46;;;;;;;;;;;;;;;;;;4992960;28;20536;-84
2023/11/30 00:23:12;;;;;;;;;;;;;;;;;;4998965;28;19920;-83
2023/11/30 00:25:38;;;;;;;;;;;;;;;;;;4995227;28;19942;-83
2023/11/30 00:28:04;;;;;;;;;;;;;;;;;;4997495;28;19917;-82
2023/11/30 00:30:30;;;;;;;;;;;;;;;;;;4998564;28;19944;-82
2023/11/30 00:32:56;;;;;;;;;;;;;;;;;;4996357;28;20022;-82
2023/11/30 00:35:22;;;;;;;;;;;;;;;;;;4998024;28;20684;-82
2023/11/30 00:37:48;;;;;;;;;;;;;;;;;;4996728;28;19925;-83
2023/11/30 00:40:14;;;;;;;;;;;;;;;;;;5000059;28;19921;-83
2023/11/30 00:42:40;;;;;;;;;;;;;;;;;;4992360;28;19924;-82
2023/11/30 00:45:06;;;;;;;;;;;;;;;;;;4997113;28;20031;-83
2023/11/30 00:47:32;;;;;;;;;;;;;;;;;;4994965;28;19917;-83
2023/11/30 00:49:58;;;;;;;;;;;;;;;;;;4989510;28;19998;-82
2023/11/30 00:52:24;;;;;;;;;;;;;;;;;;4998620;28;19923;-83
2023/11/30 00:54:50;;;;;;;;;;;;;;;;;;5017183;28;19920;-82
2023/11/30 00:57:16;;;;;;;;;;;;;;;;;;5030120;28;19963;-82
2023/11/30 00:59:42;;;;;;;;;;;;;;;;;;5044322;28;19917;-83
2023/11/30 01:02:08;;;;;;;;;;;;;;;;;;5029886;28;19916;-82
2023/11/30 01:04:34;;;;;;;;;;;;;;;;;;5033491;28;19921;-83
2023/11/30 01:07:00;;;;;;;;;;;;;;;;;;5027711;28;19916;-83
2023/11/30 01:09:26;;;;;;;;;;;;;;;;;;5030692;28;19916;-84
2023/11/30 01:11:52;;;;;;;;;;;;;;;;;;5025054;28;20412;-83
2023/11/30 01:14:17;;;;;;;;;;;;;;;;;;5030509;28;20708;-83
2023/11/30 01:16:44;;;;;;;;;;;;;;;;;;5027692;28;20498;-83
2023/11/30 01:19:10;;;;;;;;;;;;;;;;;;5036394;28;19992;-82
2023/11/30 01:21:36;;;;;;;;;;;;;;;;;;5033711;28;20294;-83
2023/11/30 01:24:02;;;;;;;;;;;;;;;;;;5028133;28;20405;-83
2023/11/30 01:26:28;;;;;;;;;;;;;;;;;;5032153;28;19928;-83
2023/11/30 01:28:54;;;;;;;;;;;;;;;;;;5031232;28;19913;-82
2023/11/30 01:31:20;;;;;;;;;;;;;;;;;;5031672;28;19921;-82
2023/11/30 01:33:46;;;;;;;;;;;;;;;;;;5031835;28;19940;-83
2023/11/30 01:36:12;;;;;;;;;;;;;;;;;;5032806;28;19912;-83
2023/11/30 01:38:38;;;;;;;;;;;;;;;;;;5030608;28;20019;-83
2023/11/30 01:41:04;;;;;;;;;;;;;;;;;;5028486;28;19917;-83
2023/11/30 01:43:30;;;;;;;;;;;;;;;;;;5030141;28;19948;-83
2023/11/30 01:45:56;;;;;;;;;;;;;;;;;;5029124;28;19921;-81
2023/11/30 01:48:22;;;;;;;;;;;;;;;;;;5042857;28;19917;-82
2023/11/30 01:50:48;;;;;;;;;;;;;;;;;;5045386;28;19921;-83
2023/11/30 01:53:14;;;;;;;;;;;;;;;;;;5026950;28;19921;-82
2023/11/30 01:55:40;;;;;;;;;;;;;;;;;;5026824;28;19912;-83
2023/11/30 01:58:06;;;;;;;;;;;;;;;;;;5025328;28;20360;-83
2023/11/30 02:00:32;;;;;;;;;;;;;;;;;;5027060;28;19917;-84
2023/11/30 02:02:58;;;;;;;;;;;;;;;;;;5021733;28;19913;-81
2023/11/30 02:05:24;;;;;;;;;;;;;;;;;;5031126;28;20322;-82
2023/11/30 02:07:50;;;;;;;;;;;;;;;;;;5025785;28;19917;-83
2023/11/30 02:10:16;;;;;;;;;;;;;;;;;;5030263;28;20267;-83
2023/11/30 02:12:42;;;;;;;;;;;;;;;;;;5026710;28;20363;-81
2023/11/30 02:15:07;;;;;;;;;;;;;;;;;;5029231;28;19917;-82
2023/11/30 02:17:33;;;;;;;;;;;;;;;;;;5033958;28;20466;-83
2023/11/30 02:19:59;;;;;;;;;;;;;;;;;;5030041;28;19928;-82
2023/11/30 02:22:25;;;;;;;;;;;;;;;;;;5026935;28;20568;-84
2023/11/30 02:24:51;;;;;;;;;;;;;;;;;;5026573;28;19917;-82
2023/11/30 02:27:17;;;;;;;;;;;;;;;;;;5031777;28;19917;-84
2023/11/30 02:29:43;;;;;;;;;;;;;;;;;;5028685;28;19916;-81
2023/11/30 02:32:09;;;;;;;;;;;;;;;;;;5029048;28;19924;-81
2023/11/30 02:34:35;;;;;;;;;;;;;;;;;;5030622;28;19916;-83
2023/11/30 02:37:01;;;;;;;;;;;;;;;;;;5029202;28;20504;-84
2023/11/30 02:39:27;;;;;;;;;;;;;;;;;;5030434;28;19917;-84
2023/11/30 02:41:53;;;;;;;;;;;;;;;;;;5029475;28;19978;-83
2023/11/30 02:44:19;;;;;;;;;;;;;;;;;;5031534;28;19916;-83
2023/11/30 02:46:45;;;;;;;;;;;;;;;;;;5028813;28;19913;-83
2023/11/30 02:49:11;;;;;;;;;;;;;;;;;;5032128;28;19928;-83
2023/11/30 02:51:37;;;;;;;;;;;;;;;;;;5026480;28;19916;-83
2023/11/30 02:54:02;;;;;;;;;;;;;;;;;;5031643;28;20015;-83
2023/11/30 02:56:28;;;;;;;;;;;;;;;;;;5035222;28;19921;-84
2023/11/30 02:58:54;;;;;;;;;;;;;;;;;;5028121;28;19920;-83
2023/11/30 03:01:20;;;;;;;;;;;;;;;;;;5032055;28;20244;-82
2023/11/30 03:03:46;;;;;;;;;;;;;;;;;;5048772;28;20398;-82
2023/11/30 03:06:12;;;;;;;;;;;;;;;;;;5030138;28;19948;-83
2023/11/30 03:08:38;;;;;;;;;;;;;;;;;;5033675;28;19917;-83
2023/11/30 03:11:04;;;;;;;;;;;;;;;;;;5029852;28;19924;-82
2023/11/30 03:13:30;;;;;;;;;;;;;;;;;;5035199;28;19916;-82
2023/11/30 03:15:56;;;;;;;;;;;;;;;;;;5030098;28;20031;-83
2023/11/30 03:18:22;;;;;;;;;;;;;;;;;;5036220;28;19929;-83
2023/11/30 03:20:48;;;;;;;;;;;;;;;;;;5047400;28;19909;-82
2023/11/30 03:23:15;;;;;;;;;;;;;;;;;;5053077;28;19912;-83
2023/11/30 03:25:41;;;;;;;;;;;;;;;;;;5044823;28;19917;-82
2023/11/30 03:28:08;;;;;;;;;;;;;;;;;;5034791;28;19927;-82
2023/11/30 03:30:34;;;;;;;;;;;;;;;;;;5035649;28;19921;-82
2023/11/30 03:33:00;;;;;;;;;;;;;;;;;;5034392;28;20016;-81
2023/11/30 03:35:26;;;;;;;;;;;;;;;;;;5067541;28;19984;-82
2023/11/30 03:37:54;;;;;;;;;;;;;;;;;;5058598;28;19928;-82
2023/11/30 03:40:21;;;;;;;;;;;;;;;;;;5056323;28;20224;-81
2023/11/30 03:42:49;;;;;;;;;;;;;;;;;;5053962;28;20047;-83
2023/11/30 03:45:16;;;;;;;;;;;;;;;;;;5043651;28;20367;-82
2023/11/30 03:47:43;;;;;;;;;;;;;;;;;;5041183;28;19917;-82
2023/11/30 03:50:11;;;;;;;;;;;;;;;;;;5041462;28;19916;-82
2023/11/30 03:52:37;;;;;;;;;;;;;;;;;;5035677;28;20027;-81
2023/11/30 03:55:03;;;;;;;;;;;;;;;;;;5035364;28;19917;-83
2023/11/30 03:57:30;;;;;;;;;;;;;;;;;;5033574;28;19925;-81
2023/11/30 03:59:57;;;;;;;;;;;;;;;;;;5030641;28;19917;-80
2023/11/30 04:02:24;;;;;;;;;;;;;;;;;;5033013;28;20015;-81
2023/11/30 04:04:54;;;;;;;;;;;;;;;;;;5032533;28;20722;-81
2023/11/30 04:07:20;;;;;;;;;;;;;;;;;;5032381;28;19952;-81
2023/11/30 04:09:48;;;;;;;;;;;;;;;;;;5028809;28;20027;-81
2023/11/30 04:12:16;;;;;;;;;;;;;;;;;;5028976;28;19966;-82
2023/11/30 04:14:44;;;;;;;;;;;;;;;;;;5026344;28;19921;-80
2023/11/30 04:17:11;;;;;;;;;;;;;;;;;;5029205;28;20011;-80
2023/11/30 04:19:38;;;;;;;;;;;;;;;;;;5028909;28;20279;-81
2023/11/30 04:22:05;;;;;;;;;;;;;;;;;;5028448;28;19928;-83
2023/11/30 04:24:33;;;;;;;;;;;;;;;;;;5031037;28;19975;-83
2023/11/30 04:27:00;;;;;;;;;;;;;;;;;;5028611;28;20482;-82
2023/11/30 04:29:28;;;;;;;;;;;;;;;;;;5049256;28;19945;-83
2023/11/30 04:31:54;;;;;;;;;;;;;;;;;;5031483;28;19917;-83
2023/11/30 04:34:20;;;;;;;;;;;;;;;;;;5033663;28;19924;-83
2023/11/30 04:36:45;;;;;;;;;;;;;;;;;;5029998;28;19932;-82
2023/11/30 04:39:11;;;;;;;;;;;;;;;;;;5034201;28;19916;-84
2023/11/30 04:41:38;;;;;;;;;;;;;;;;;;5034600;28;19969;-81
2023/11/30 04:44:04;;;;;;;;;;;;;;;;;;5030566;28;19962;-81
2023/11/30 04:46:30;;;;;;;;;;;;;;;;;;5029478;28;19960;-83
2023/11/30 04:48:58;;;;;;;;;;;;;;;;;;5030307;28;19944;-82
2023/11/30 04:51:25;;;;;;;;;;;;;;;;;;5030332;28;20543;-82
2023/11/30 04:53:53;;;;;;;;;;;;;;;;;;5026611;28;20707;-83
2023/11/30 04:56:20;;;;;;;;;;;;;;;;;;5029687;28;19917;-82
2023/11/30 04:58:47;;;;;;;;;;;;;;;;;;5027631;28;19920;-83
2023/11/30 05:01:13;;;;;;;;;;;;;;;;;;5031419;28;19977;-82
2023/11/30 05:03:39;;;;;;;;;;;;;;;;;;5032841;28;19917;-83
2023/11/30 05:06:06;;;;;;;;;;;;;;;;;;5026992;28;19924;-82
2023/11/30 05:08:34;;;;;;;;;;;;;;;;;;5031848;28;20325;-83
2023/11/30 05:11:01;;;;;;;;;;;;;;;;;;5030374;28;20582;-82
2023/11/30 05:13:28;;;;;;;;;;;;;;;;;;5023771;28;20079;-84
2023/11/30 05:15:55;;;;;;;;;;;;;;;;;;5031070;28;20299;-83
2023/11/30 05:18:22;;;;;;;;;;;;;;;;;;5032864;28;19947;-83
2023/11/30 05:20:48;;;;;;;;;;;;;;;;;;5027899;28;19938;-82
2023/11/30 05:23:14;;;;;;;;;;;;;;;;;;5030061;28;19996;-81
2023/11/30 05:25:42;;;;;;;;;;;;;;;;;;5027579;28;20099;-83
2023/11/30 05:28:09;;;;;;;;;;;;;;;;;;5034263;28;20031;-82
2023/11/30 05:30:36;;;;;;;;;;;;;;;;;;5026789;28;19921;-82
2023/11/30 05:33:04;;;;;;;;;;;;;;;;;;5026721;28;19953;-81
2023/11/30 05:35:30;;;;;;;;;;;;;;;;;;5045341;28;20009;-81
2023/11/30 05:37:57;;;;;;;;;;;;;;;;;;5028995;28;20055;-80
2023/11/30 05:40:24;;;;;;;;;;;;;;;;;;5032301;28;19960;-82
2023/11/30 05:42:51;;;;;;;;;;;;;;;;;;5032912;28;19917;-82
2023/11/30 05:45:18;;;;;;;;;;;;;;;;;;5031814;28;19924;-82
2023/11/30 05:47:46;;;;;;;;;;;;;;;;;;5032111;28;19923;-82
2023/11/30 05:50:12;;;;;;;;;;;;;;;;;;5037233;28;20012;-83
2023/11/30 05:52:38;;;;;;;;;;;;;;;;;;5036967;28;19920;-85
2023/11/30 05:55:04;;;;;;;;;;;;;;;;;;5031736;28;19917;-83
2023/11/30 05:57:31;;;;;;;;;;;;;;;;;;5033515;28;19943;-83
2023/11/30 05:59:59;;;;;;;;;;;;;;;;;;5025613;28;19917;-81
2023/11/30 06:02:26;;;;;;;;;;;;;;;;;;5031213;28;20723;-83
2023/11/30 06:04:54;;;;;;;;;;;;;;;;;;5029389;28;19931;-85
2023/11/30 06:07:19;;;;;;;;;;;;;;;;;;5030856;28;19923;-83
2023/11/30 06:09:46;;;;;;;;;;;;;;;;;;5026530;28;19920;-81
2023/11/30 06:12:13;;;;;;;;;;;;;;;;;;5029831;28;20374;-83
2023/11/30 06:14:39;;;;;;;;;;;;;;;;;;5035193;28;19917;-82
2023/11/30 06:17:07;;;;;;;;;;;;;;;;;;5040174;28;19924;-82
2023/11/30 06:19:33;;;;;;;;;;;;;;;;;;5048806;28;20617;-82
2023/11/30 06:22:00;;;;;;;;;;;;;;;;;;5049467;28;19945;-81
2023/11/30 06:24:29;;;;;;;;;;;;;;;;;;5042667;28;19917;-81
2023/11/30 06:26:55;;;;;;;;;;;;;;;;;;5042406;28;19917;-83
2023/11/30 06:29:42;;;;;;;;;;;;;;;;;;5039087;28;19950;-81
2023/11/30 06:32:09;;;;;;;;;;;;;;;;;;5039626;28;20781;-82
2023/11/30 06:34:44;;;;;;;;;;;;;;;;;;5035643;28;19916;-81
2023/11/30 06:37:10;;;;;;;;;;;;;;;;;;5036178;28;19924;-83
2023/11/30 06:39:36;;;;;;;;;;;;;;;;;;5034530;28;19917;-81
2023/11/30 06:42:03;;;;;;;;;;;;;;;;;;5030402;28;19928;-82
2023/11/30 06:44:29;;;;;;;;;;;;;;;;;;5035237;28;19981;-84
2023/11/30 06:46:55;;;;;;;;;;;;;;;;;;5033722;28;19948;-83
2023/11/30 06:49:21;;;;;;;;;;;;;;;;;;5036526;28;20437;-84
2023/11/30 06:51:47;;;;;;;;;;;;;;;;;;5030395;28;19917;-83
2023/11/30 06:54:13;;;;;;;;;;;;;;;;;;5035133;28;19923;-83
2023/11/30 06:56:41;;;;;;;;;;;;;;;;;;5031963;28;20316;-81
2023/11/30 06:59:07;;;;;;;;;;;;;;;;;;5033781;28;19917;-84
2023/11/30 07:01:34;;;;;;;;;;;;;;;;;;5033747;28;19916;-81
2023/11/30 07:04:01;;;;;;;;;;;;;;;;;;5028100;28;20958;-81
2023/11/30 07:06:30;;;;;;;;;;;;;;;;;;5037535;28;19924;-81
2023/11/30 07:08:57;;;;;;;;;;;;;;;;;;5036943;28;20002;-84
2023/11/30 07:11:24;;;;;;;;;;;;;;;;;;5032761;28;19951;-84
2023/11/30 07:13:52;;;;;;;;;;;;;;;;;;5025876;28;20067;-83
2023/11/30 07:16:18;;;;;;;;;;;;;;;;;;5027346;28;19921;-83
2023/11/30 07:18:44;;;;;;;;;;;;;;;;;;5033033;28;20287;-81
2023/11/30 07:21:11;;;;;;;;;;;;;;;;;;5034934;28;20170;-85
2023/11/30 07:23:39;;;;;;;;;;;;;;;;;;5034647;28;20367;-83
2023/11/30 07:26:06;;;;;;;;;;;;;;;;;;5037723;28;19913;-82
2023/11/30 07:28:34;;;;;;;;;;;;;;;;;;5034653;28;19924;-83
2023/11/30 07:31:01;;;;;;;;;;;;;;;;;;5027145;28;20241;-83
2023/11/30 07:33:27;;;;;;;;;;;;;;;;;;5037598;28;19921;-84
2023/11/30 07:35:53;;;;;;;;;;;;;;;;;;5039071;28;19919;-84
2023/11/30 07:38:19;;;;;;;;;;;;;;;;;;5041594;28;19949;-84
2023/11/30 07:40:45;;;;;;;;;;;;;;;;;;5032079;28;19924;-84
2023/11/30 07:43:11;;;;;;;;;;;;;;;;;;5034963;28;19939;-83
2023/11/30 07:45:38;;;;;;;;;;;;;;;;;;5055356;28;19916;-84
2023/11/30 07:48:06;;;;;;;;;;;;;;;;;;5036491;28;19951;-79
2023/11/30 07:50:33;;;;;;;;;;;;;;;;;;5033318;28;19928;-83
2023/11/30 07:53:04;;;;;;;;;;;;;;;;;;5031523;28;19923;-81
2023/11/30 07:55:31;;;;;;;;;;;;;;;;;;5039078;28;19923;-82
2023/11/30 07:57:58;;;;;;;;;;;;;;;;;;5040262;28;19928;-83
2023/11/30 08:00:24;;;;;;;;;;;;;;;;;;5029326;28;19923;-82
2023/11/30 08:02:52;;;;;;;;;;;;;;;;;;5034953;28;19921;-83
2023/11/30 08:05:22;;;;;;;;;;;;;;;;;;5036344;28;20496;-83
2023/11/30 08:07:51;;;;;;;;;;;;;;;;;;5033730;28;19916;-83
2023/11/30 08:10:19;;;;;;;;;;;;;;;;;;5033694;28;20290;-82
2023/11/30 08:12:46;;;;;;;;;;;;;;;;;;5036118;28;20011;-84
2023/11/30 08:15:12;;;;;;;;;;;;;;;;;;5034173;28;20007;-86
2023/11/30 08:17:38;;;;;;;;;;;;;;;;;;5035911;28;20014;-84
2023/11/30 08:20:09;;;;;;;;;;;;;;;;;;5034492;28;19948;-84
2023/11/30 08:22:37;;;;;;;;;;;;;;;;;;5030163;28;19921;-83
2023/11/30 08:25:05;;;;;;;;;;;;;;;;;;5033630;28;19979;-82
2023/11/30 08:27:33;;;;;;;;;;;;;;;;;;5038054;28;19956;-82
2023/11/30 08:30:00;;;;;;;;;;;;;;;;;;5031275;28;19920;-81
2023/11/30 08:32:26;;;;;;;;;;;;;;;;;;5035427;28;20026;-82
2023/11/30 08:34:52;;;;;;;;;;;;;;;;;;5037019;28;20413;-84
2023/11/30 08:37:18;;;;;;;;;;;;;;;;;;5052888;28;19967;-82
2023/11/30 08:39:45;;;;;;;;;;;;;;;;;;5043700;28;19917;-83
2023/11/30 08:42:12;;;;;;;;;;;;;;;;;;5055778;28;19934;-83
2023/11/30 08:44:40;;;;;;;;;;;;;;;;;;5050160;28;20316;-82
2023/11/30 08:47:07;;;;;;;;;;;;;;;;;;5036654;28;19917;-82
2023/11/30 08:49:34;;;;;;;;;;;;;;;;;;5036317;28;19913;-82
2023/11/30 08:52:01;;;;;;;;;;;;;;;;;;5032651;28;20378;-81
2023/11/30 08:54:29;;;;;;;;;;;;;;;;;;5034907;28;20443;-80
2023/11/30 08:56:55;;;;;;;;;;;;;;;;;;5027676;28;19959;-80
2023/11/30 08:59:21;;;;;;;;;;;;;;;;;;5033472;28;20020;-80
2023/11/30 09:01:49;;;;;;;;;;;;;;;;;;5027400;28;20038;-80
2023/11/30 09:04:15;;;;;;;;;;;;;;;;;;5031513;28;20015;-80
2023/11/30 09:06:41;;;;;;;;;;;;;;;;;;5029599;28;20003;-81
2023/11/30 09:09:07;;;;;;;;;;;;;;;;;;5030497;28;19944;-80
2023/11/30 09:11:34;;;;;;;;;;;;;;;;;;5034543;28;19917;-80
2023/11/30 09:14:01;;;;;;;;;;;;;;;;;;5030185;28;20458;-81
2023/11/30 09:16:29;;;;;;;;;;;;;;;;;;5032033;28;19917;-78
2023/11/30 09:18:57;;;;;;;;;;;;;;;;;;5031524;28;20417;-79
2023/11/30 09:21:23;;;;;;;;;;;;;;;;;;5034175;28;20018;-81
2023/11/30 09:23:50;;;;;;;;;;;;;;;;;;5031289;28;19928;-81
2023/11/30 09:26:16;;;;;;;;;;;;;;;;;;5027435;28;19920;-80
2023/11/30 09:28:42;;;;;;;;;;;;;;;;;;5031078;28;19969;-80
2023/11/30 09:31:10;;;;;;;;;;;;;;;;;;5029069;28;20337;-80
2023/11/30 09:33:37;;;;;;;;;;;;;;;;;;5033092;28;19913;-81
2023/11/30 09:36:23;;;;;;;;;;;;;;;;;;5029277;28;20055;-80
2023/11/30 09:38:51;;;;;;;;;;;;;;;;;;5026915;28;19971;-80
2023/11/30 09:41:19;;;;;;;;;;;;;;;;;;5030708;28;19980;-79
2023/11/30 09:43:45;;;;;;;;;;;;;;;;;;5036737;28;19928;-79
2023/11/30 09:46:11;;;;;;;;;;;;;;;;;;5055172;28;19921;-80
2023/11/30 09:48:37;;;;;;;;;;;;;;;;;;5056473;28;19982;-80
2023/11/30 09:51:03;;;;;;;;;;;;;;;;;;5038567;28;20339;-80
2023/11/30 09:53:31;;;;;;;;;;;;;;;;;;5032235;28;19917;-80
2023/11/30 09:55:58;;;;;;;;;;;;;;;;;;5032448;28;20019;-78
2023/11/30 09:58:26;;;;;;;;;;;;;;;;;;5045051;28;19998;-80
2023/11/30 10:00:53;;;;;;;;;;;;;;;;;;5043751;28;19917;-80
2023/11/30 10:03:20;;;;;;;;;;;;;;;;;;5037320;28;19959;-78
2023/11/30 10:05:46;;;;;;;;;;;;;;;;;;5039100;28;19963;-79
2023/11/30 10:08:13;;;;;;;;;;;;;;;;;;5039387;28;19956;-77
2023/11/30 10:10:40;;;;;;;;;;;;;;;;;;5033091;28;19917;-79
2023/11/30 10:13:06;;;;;;;;;;;;;;;;;;5036817;28;19916;-78
2023/11/30 10:15:33;;;;;;;;;;;;;;;;;;5031672;28;19923;-79
2023/11/30 10:18:00;;;;;;;;;;;;;;;;;;5029557;28;20715;-80
2023/11/30 10:20:27;;;;;;;;;;;;;;;;;;5031274;28;19920;-80
2023/11/30 10:22:56;;;;;;;;;;;;;;;;;;5031599;28;19947;-81
2023/11/30 10:25:21;;;;;;;;;;;;;;;;;;5031232;28;19917;-80
2023/11/30 10:27:47;;;;;;;;;;;;;;;;;;5028525;28;19944;-79
2023/11/30 10:30:14;;;;;;;;;;;;;;;;;;5048312;28;20066;-79
2023/11/30 10:32:41;;;;;;;;;;;;;;;;;;5037020;28;19917;-79
2023/11/30 10:35:08;;;;;;;;;;;;;;;;;;5030705;28;19924;-79
2023/11/30 10:37:34;;;;;;;;;;;;;;;;;;5032418;28;20015;-79
2023/11/30 10:40:00;;;;;;;;;;;;;;;;;;5031378;28;19927;-78
2023/11/30 10:42:26;;;;;;;;;;;;;;;;;;5031701;28;19957;-79
2023/11/30 10:44:54;;;;;;;;;;;;;;;;;;5032292;28;19920;-78
2023/11/30 10:47:20;;;;;;;;;;;;;;;;;;5034208;28;19917;-79
2023/11/30 10:49:48;;;;;;;;;;;;;;;;;;5025731;28;19990;-79
2023/11/30 10:52:16;;;;;;;;;;;;;;;;;;5030294;28;19975;-80
2023/11/30 10:54:44;;;;;;;;;;;;;;;;;;5028311;28;20259;-79
2023/11/30 10:57:13;;;;;;;;;;;;;;;;;;5031361;28;19920;-78
2023/11/30 10:59:40;;;;;;;;;;;;;;;;;;5033980;28;19916;-80
2023/11/30 11:02:09;;;;;;;;;;;;;;;;;;5030385;28;19917;-78
2023/11/30 11:04:37;;;;;;;;;;;;;;;;;;5034888;28;19916;-80
2023/11/30 11:07:03;;;;;;;;;;;;;;;;;;5029508;28;19960;-79
2023/11/30 11:09:31;;;;;;;;;;;;;;;;;;5034868;28;20793;-80
2023/11/30 11:11:57;;;;;;;;;;;;;;;;;;5026811;28;19944;-77
2023/11/30 11:14:24;;;;;;;;;;;;;;;;;;5029684;28;20028;-80
2023/11/30 11:16:51;;;;;;;;;;;;;;;;;;5032511;28;19916;-79
2023/11/30 11:19:18;;;;;;;;;;;;;;;;;;5033588;28;19916;-78
2023/11/30 11:21:48;;;;;;;;;;;;;;;;;;5028046;28;20753;-81
2023/11/30 11:24:14;;;;;;;;;;;;;;;;;;5031180;28;19928;-80
2023/11/30 11:26:41;;;;;;;;;;;;;;;;;;5029093;28;19913;-80
2023/11/30 11:29:08;;;;;;;;;;;;;;;;;;5028808;28;20466;-77
2023/11/30 11:31:35;;;;;;;;;;;;;;;;;;5032759;28;20216;-80
2023/11/30 11:34:01;;;;;;;;;;;;;;;;;;5028393;28;20011;-80
2023/11/30 11:36:27;;;;;;;;;;;;;;;;;;5028162;28;19917;-80
2023/11/30 11:38:55;;;;;;;;;;;;;;;;;;5027423;28;20020;-79
2023/11/30 11:41:21;;;;;;;;;;;;;;;;;;5026488;28;19923;-79
2023/11/30 11:43:48;;;;;;;;;;;;;;;;;;5034107;28;19917;-83
2023/11/30 11:46:15;;;;;;;;;;;;;;;;;;5037800;28;19921;-83
2023/11/30 11:48:43;;;;;;;;;;;;;;;;;;5034429;28;19923;-80
2023/11/30 11:51:10;;;;;;;;;;;;;;;;;;5030450;28;20776;-79
2023/11/30 11:53:35;;;;;;;;;;;;;;;;;;5031713;28;19929;-81
2023/11/30 11:56:02;;;;;;;;;;;;;;;;;;5033097;28;19921;-82
2023/11/30 11:58:31;;;;;;;;;;;;;;;;;;5034436;28;19921;-81
2023/11/30 12:00:57;;;;;;;;;;;;;;;;;;5031595;28;19917;-81
2023/11/30 12:03:24;;;;;;;;;;;;;;;;;;5033212;28;19917;-81
2023/11/30 12:05:53;;;;;;;;;;;;;;;;;;5027569;28;19917;-81
2023/11/30 12:08:20;;;;;;;;;;;;;;;;;;5032450;28;19927;-82
2023/11/30 12:10:50;;;;;;;;;;;;;;;;;;5026806;28;19921;-83
2023/11/30 12:13:17;;;;;;;;;;;;;;;;;;5029048;28;19976;-84
2023/11/30 12:15:43;;;;;;;;;;;;;;;;;;5031122;28;19992;-83
2023/11/30 12:18:10;;;;;;;;;;;;;;;;;;5037317;28;19927;-83
2023/11/30 12:20:37;;;;;;;;;;;;;;;;;;5026988;28;20015;-82
2023/11/30 12:23:04;;;;;;;;;;;;;;;;;;5030471;28;19924;-82
2023/11/30 12:25:32;;;;;;;;;;;;;;;;;;5039944;28;19992;-83
2023/11/30 12:27:59;;;;;;;;;;;;;;;;;;5036126;28;20539;-81
2023/11/30 12:30:28;;;;;;;;;;;;;;;;;;5039664;28;19920;-81
2023/11/30 12:32:54;;;;;;;;;;;;;;;;;;5033249;28;19921;-79
2023/11/30 12:35:20;;;;;;;;;;;;;;;;;;5034100;28;19920;-81
2023/11/30 12:37:46;;;;;;;;;;;;;;;;;;5030747;28;19931;-81
2023/11/30 12:40:14;;;;;;;;;;;;;;;;;;5029673;28;20060;-80
2023/11/30 12:42:41;;;;;;;;;;;;;;;;;;5028827;28;19924;-79
2023/11/30 12:45:08;;;;;;;;;;;;;;;;;;5026939;28;20655;-78
2023/11/30 12:47:34;;;;;;;;;;;;;;;;;;5030007;28;19924;-79
2023/11/30 12:50:04;;;;;;;;;;;;;;;;;;5027382;28;19940;-80
2023/11/30 12:52:32;;;;;;;;;;;;;;;;;;5027989;28;19952;-80
2023/11/30 12:54:58;;;;;;;;;;;;;;;;;;5027127;28;19916;-80
2023/11/30 12:57:24;;;;;;;;;;;;;;;;;;5024949;28;19927;-79
2023/11/30 12:59:50;;;;;;;;;;;;;;;;;;5027130;28;19916;-79
2023/11/30 13:02:16;;;;;;;;;;;;;;;;;;5028221;28;19916;-82
2023/11/30 13:04:42;;;;;;;;;;;;;;;;;;5030485;28;19925;-79
2023/11/30 13:07:10;;;;;;;;;;;;;;;;;;5028654;28;19971;-80
2023/11/30 13:09:36;;;;;;;;;;;;;;;;;;5031469;28;19925;-82
2023/11/30 13:12:02;;;;;;;;;;;;;;;;;;5028573;28;19975;-80
2023/11/30 13:14:28;;;;;;;;;;;;;;;;;;5030858;28;19924;-80
2023/11/30 13:16:56;;;;;;;;;;;;;;;;;;5028408;28;19917;-80
2023/11/30 13:19:22;;;;;;;;;;;;;;;;;;5027066;28;19917;-78
2023/11/30 13:21:48;;;;;;;;;;;;;;;;;;5025903;28;19929;-80
2023/11/30 13:24:16;;;;;;;;;;;;;;;;;;5027742;28;19956;-80
2023/11/30 13:26:47;;;;;;;;;;;;;;;;;;5028056;28;20462;-80
2023/11/30 13:29:17;;;;;;;;;;;;;;;;;;5027872;28;19944;-80
2023/11/30 13:31:45;;;;;;;;;;;;;;;;;;5024001;28;20503;-79
2023/11/30 13:34:15;;;;;;;;;;;;;;;;;;5029802;28;20465;-80
2023/11/30 13:36:42;;;;;;;;;;;;;;;;;;5023190;28;20304;-79
2023/11/30 13:39:10;;;;;;;;;;;;;;;;;;5042593;28;19924;-79
2023/11/30 13:41:36;;;;;;;;;;;;;;;;;;5026556;28;19921;-80
2023/11/30 13:44:04;;;;;;;;;;;;;;;;;;5027328;28;19921;-79
2023/11/30 13:46:31;;;;;;;;;;;;;;;;;;5031414;28;19977;-81
2023/11/30 13:48:59;;;;;;;;;;;;;;;;;;5030219;28;20014;-81
2023/11/30 13:51:27;;;;;;;;;;;;;;;;;;5030450;28;20011;-80
2023/11/30 13:53:54;;;;;;;;;;;;;;;;;;5022050;28;20636;-80
2023/11/30 13:56:21;;;;;;;;;;;;;;;;;;5031531;28;20659;-80
2023/11/30 13:58:49;;;;;;;;;;;;;;;;;;5032040;28;19925;-80
2023/11/30 14:01:16;;;;;;;;;;;;;;;;;;5029395;28;19948;-80
2023/11/30 14:03:44;;;;;;;;;;;;;;;;;;5027146;28;20163;-80
2023/11/30 14:06:10;;;;;;;;;;;;;;;;;;5031790;28;19917;-81
2023/11/30 14:08:37;;;;;;;;;;;;;;;;;;5029051;28;19917;-79
2023/11/30 14:11:05;;;;;;;;;;;;;;;;;;5025518;28;20413;-79
2023/11/30 14:13:31;;;;;;;;;;;;;;;;;;5027278;28;19916;-80
2023/11/30 14:15:58;;;;;;;;;;;;;;;;;;5024956;28;19923;-77
2023/11/30 14:18:24;;;;;;;;;;;;;;;;;;5025808;28;20052;-80
2023/11/30 14:20:51;;;;;;;;;;;;;;;;;;5036084;28;19931;-80
2023/11/30 14:23:17;;;;;;;;;;;;;;;;;;5038452;28;19921;-81
2023/11/30 14:25:44;;;;;;;;;;;;;;;;;;5038615;28;19920;-81
2023/11/30 14:28:11;;;;;;;;;;;;;;;;;;5026872;28;19917;-79
2023/11/30 14:30:37;;;;;;;;;;;;;;;;;;5030406;28;19948;-81
2023/11/30 14:33:04;;;;;;;;;;;;;;;;;;5030169;28;20118;-80
2023/11/30 14:35:30;;;;;;;;;;;;;;;;;;5029939;28;19923;-82
2023/11/30 14:37:57;;;;;;;;;;;;;;;;;;5027311;28;19925;-79
2023/11/30 14:40:23;;;;;;;;;;;;;;;;;;5033395;28;19917;-79
2023/11/30 14:42:50;;;;;;;;;;;;;;;;;;5027156;28;19923;-78
2023/11/30 14:45:17;;;;;;;;;;;;;;;;;;5030202;28;20434;-79
2023/11/30 14:47:46;;;;;;;;;;;;;;;;;;5031867;28;19921;-79
2023/11/30 14:50:15;;;;;;;;;;;;;;;;;;5032163;28;20461;-80
2023/11/30 14:52:44;;;;;;;;;;;;;;;;;;5035836;28;19920;-79
2023/11/30 14:55:11;;;;;;;;;;;;;;;;;;5031679;28;20031;-80
2023/11/30 14:57:42;;;;;;;;;;;;;;;;;;5032692;28;20722;-81
2023/11/30 15:00:20;;;;;;;;;;;;;;;;;;5034586;28;19917;-81
2023/11/30 15:02:48;;;;;;;;;;;;;;;;;;5029687;28;20365;-80
2023/11/30 15:05:15;;;;;;;;;;;;;;;;;;5025930;28;19978;-79
2023/11/30 15:07:43;;;;;;;;;;;;;;;;;;5032766;28;20203;-78
2023/11/30 15:10:10;;;;;;;;;;;;;;;;;;5025982;28;20334;-82
2023/11/30 15:12:38;;;;;;;;;;;;;;;;;;5033309;28;20466;-79
2023/11/30 15:15:08;;;;;;;;;;;;;;;;;;5027856;28;19916;-80
2023/11/30 15:17:35;;;;;;;;;;;;;;;;;;5028676;28;19920;-80
2023/11/30 15:20:03;;;;;;;;;;;;;;;;;;5025221;28;20809;-79
2023/11/30 15:22:30;;;;;;;;;;;;;;;;;;5031841;28;20040;-81
2023/11/30 15:24:56;;;;;;;;;;;;;;;;;;5030214;28;19917;-81
2023/11/30 15:27:24;;;;;;;;;;;;;;;;;;5032192;28;19926;-82
2023/11/30 15:29:51;;;;;;;;;;;;;;;;;;5026570;28;20868;-80
2023/11/30 15:32:18;;;;;;;;;;;;;;;;;;5027019;28;19921;-81
2023/11/30 15:34:44;;;;;;;;;;;;;;;;;;5027653;28;19986;-80
2023/11/30 15:37:13;;;;;;;;;;;;;;;;;;5030375;28;19963;-79
2023/11/30 15:39:40;;;;;;;;;;;;;;;;;;5025918;28;19917;-80
2023/11/30 15:42:06;;;;;;;;;;;;;;;;;;5032934;28;19924;-79
2023/11/30 15:44:33;;;;;;;;;;;;;;;;;;5030545;28;19991;-79
2023/11/30 15:47:00;;;;;;;;;;;;;;;;;;5029846;28;19917;-79
2023/11/30 15:49:27;;;;;;;;;;;;;;;;;;5039683;28;19948;-78
2023/11/30 15:51:54;;;;;;;;;;;;;;;;;;5042446;28;20492;-82
2023/11/30 15:54:21;;;;;;;;;;;;;;;;;;5038359;28;20007;-80
2023/11/30 15:56:47;;;;;;;;;;;;;;;;;;5053032;28;19920;-82
2023/11/30 15:59:13;;;;;;;;;;;;;;;;;;5032763;28;19927;-80
2023/11/30 16:01:41;;;;;;;;;;;;;;;;;;5031959;28;19921;-81
2023/11/30 16:04:08;;;;;;;;;;;;;;;;;;5030510;28;19916;-80
2023/11/30 16:06:38;;;;;;;;;;;;;;;;;;5032370;28;20400;-79
2023/11/30 16:09:04;;;;;;;;;;;;;;;;;;5027592;28;19927;-80
2023/11/30 16:11:30;;;;;;;;;;;;;;;;;;5039092;28;19916;-81
2023/11/30 16:13:57;;;;;;;;;;;;;;;;;;5028623;28;19923;-81
2023/11/30 16:16:25;;;;;;;;;;;;;;;;;;5055176;28;20331;-80
2023/11/30 16:18:52;;;;;;;;;;;;;;;;;;5028297;28;19986;-81
2023/11/30 16:21:18;;;;;;;;;;;;;;;;;;5027082;28;19944;-81
2023/11/30 16:23:45;;;;;;;;;;;;;;;;;;5027292;28;19921;-79
2023/11/30 16:26:12;;;;;;;;;;;;;;;;;;5032968;28;19923;-80
2023/11/30 16:28:40;;;;;;;;;;;;;;;;;;5025177;28;19924;-79
2023/11/30 16:31:08;;;;;;;;;;;;;;;;;;5005446;28;19954;-78
2023/11/30 16:33:35;;;;;;;;;;;;;;;;;;5024755;28;20526;-79
2023/11/30 16:36:02;;;;;;;;;;;;;;;;;;5019122;28;20370;-79
2023/11/30 16:38:29;;;;;;;;;;;;;;;;;;5026322;28;19932;-79
2023/11/30 16:40:55;;;;;;;;;;;;;;;;;;5005605;28;20022;-80
2023/11/30 16:43:23;;;;;;;;;;;;;;;;;;5026569;28;19962;-80